WRO weather

Copernicus Wrocław Airport
Wrocław, Lower Silesia, Poland

Public forecast

Using degrees Celsius for public forecast. Weather courtesy of forecast.io.

METAR (pilot weather report)

Retrieved 2019/05/24 14:30 UTC (0 seconds ago):

EPWR 241430Z 28005KT 240V330 CAVOK 20/04 Q1013

TAF (pilot weather forecast)

Retrieved 2019/05/24 15:36 UTC (0 seconds ago):

TAF EPWR 241430Z 2415/2515 28006KT CAVOK